createdAt,value
2023-05-23T00:00:02.498Z,20.90
2023-05-23T00:01:02.476Z,21.20
2023-05-23T00:02:02.483Z,20.40
2023-05-23T00:03:02.719Z,22.90
2023-05-23T00:04:02.576Z,22.30
2023-05-23T00:05:02.549Z,24.00
2023-05-23T00:06:02.416Z,20.50
2023-05-23T00:07:02.448Z,19.50
2023-05-23T00:08:02.460Z,20.90
2023-05-23T00:09:02.398Z,18.90
2023-05-23T00:10:02.401Z,18.10
2023-05-23T00:11:02.385Z,20.60
2023-05-23T00:12:02.360Z,20.90
2023-05-23T00:13:02.406Z,19.80
2023-05-23T00:14:02.333Z,21.50
2023-05-23T00:15:02.354Z,17.90
2023-05-23T00:16:02.331Z,19.30
2023-05-23T00:17:02.429Z,17.70
2023-05-23T00:18:02.384Z,22.30
2023-05-23T00:19:02.376Z,17.00
2023-05-23T00:20:02.260Z,20.40
2023-05-23T00:21:02.470Z,17.60
2023-05-23T00:22:02.286Z,18.10
2023-05-23T00:23:02.217Z,19.40
2023-05-23T00:24:02.300Z,21.10
2023-05-23T00:25:02.356Z,18.30
2023-05-23T00:26:02.213Z,18.50
2023-05-23T00:27:02.260Z,22.60
2023-05-23T00:28:02.223Z,19.60
2023-05-23T00:29:02.164Z,18.10
2023-05-23T00:30:02.229Z,16.00
2023-05-23T00:31:02.215Z,18.60
2023-05-23T00:32:02.148Z,21.90
2023-05-23T00:33:02.191Z,17.80
2023-05-23T00:34:02.113Z,20.00
2023-05-23T00:35:02.139Z,17.10
2023-05-23T00:36:02.073Z,20.00
2023-05-23T00:37:02.144Z,17.30
2023-05-23T00:38:02.189Z,19.20
2023-05-23T00:39:02.104Z,19.50
2023-05-23T00:40:02.113Z,16.20
2023-05-23T00:41:02.077Z,15.30
2023-05-23T00:42:02.017Z,16.90
2023-05-23T00:43:02.102Z,19.40
2023-05-23T00:44:02.028Z,19.90
2023-05-23T00:45:02.048Z,20.70
2023-05-23T00:46:02.046Z,17.10
2023-05-23T00:47:02.076Z,17.40
2023-05-23T00:48:02.042Z,18.00
2023-05-23T00:49:02.055Z,17.00
2023-05-23T00:50:01.960Z,16.10
2023-05-23T00:51:01.934Z,18.00
2023-05-23T00:52:01.945Z,17.80
2023-05-23T00:53:01.947Z,16.00
2023-05-23T00:54:02.093Z,18.40
2023-05-23T00:55:01.920Z,18.00
2023-05-23T00:56:01.883Z,19.80
2023-05-23T00:57:01.968Z,17.30
2023-05-23T00:58:01.857Z,18.30
2023-05-23T00:59:01.857Z,16.90
2023-05-23T01:00:01.857Z,17.30
2023-05-23T01:01:01.946Z,17.20
2023-05-23T01:02:01.878Z,21.10
2023-05-23T01:03:02.002Z,20.80
2023-05-23T01:04:01.877Z,19.50
2023-05-23T01:05:01.816Z,19.00
2023-05-23T01:06:01.749Z,16.70
2023-05-23T01:07:01.836Z,16.50
2023-05-23T01:08:01.745Z,17.80
2023-05-23T01:09:01.795Z,16.80
2023-05-23T01:10:01.731Z,18.40
2023-05-23T01:11:01.733Z,15.10
2023-05-23T01:12:01.715Z,19.50
2023-05-23T01:13:01.742Z,18.70
2023-05-23T01:14:01.852Z,14.30
2023-05-23T01:15:01.679Z,14.70
2023-05-23T01:16:03.009Z,17.10
2023-05-23T01:17:01.695Z,21.80
2023-05-23T01:18:01.649Z,17.10
2023-05-23T01:19:01.646Z,19.40
2023-05-23T01:20:01.619Z,18.40
2023-05-23T01:21:01.691Z,15.10
2023-05-23T01:22:01.612Z,20.10
2023-05-23T01:23:01.663Z,16.70
2023-05-23T01:24:01.599Z,19.40
2023-05-23T01:25:01.604Z,19.00
2023-05-23T01:26:01.576Z,20.60
2023-05-23T01:27:01.618Z,16.80
2023-05-23T01:28:01.554Z,16.80
2023-05-23T01:29:01.570Z,19.40
2023-05-23T01:30:01.495Z,17.40
2023-05-23T01:31:01.515Z,15.80
2023-05-23T01:32:01.666Z,18.50
2023-05-23T01:33:01.528Z,18.70
2023-05-23T01:34:01.481Z,19.00
2023-05-23T01:35:01.501Z,16.90
2023-05-23T01:36:01.418Z,18.40
2023-05-23T01:37:01.511Z,19.60
2023-05-23T01:38:01.432Z,16.30
2023-05-23T01:39:01.443Z,16.60
2023-05-23T01:40:01.442Z,20.70
2023-05-23T01:41:01.409Z,18.20
2023-05-23T01:42:01.371Z,19.60
2023-05-23T01:43:01.683Z,17.10
2023-05-23T01:44:01.398Z,16.40
2023-05-23T01:45:01.388Z,17.90
2023-05-23T01:46:01.423Z,16.30
2023-05-23T01:47:01.402Z,18.90
2023-05-23T01:48:01.383Z,15.40
2023-05-23T01:49:01.324Z,18.70
2023-05-23T01:50:01.316Z,18.10
2023-05-23T01:51:01.313Z,18.20
2023-05-23T01:52:01.350Z,17.00
2023-05-23T01:53:01.425Z,20.40
2023-05-23T01:54:01.291Z,16.40
2023-05-23T01:55:01.295Z,19.40
2023-05-23T01:56:01.267Z,19.60
2023-05-23T01:57:01.221Z,19.40
2023-05-23T01:58:01.228Z,16.70
2023-05-23T01:59:01.226Z,16.00
2023-05-23T02:00:01.241Z,16.80
2023-05-23T02:01:01.282Z,22.30
2023-05-23T02:02:01.209Z,18.20
2023-05-23T02:03:01.330Z,18.70
2023-05-23T02:04:01.174Z,20.20
2023-05-23T02:05:01.153Z,17.40
2023-05-23T02:06:01.137Z,17.80
2023-05-23T02:07:01.172Z,20.30
2023-05-23T02:08:01.113Z,16.10
2023-05-23T02:09:01.384Z,14.70
2023-05-23T02:10:01.083Z,15.90
2023-05-23T02:11:01.106Z,17.70
2023-05-23T02:12:01.113Z,18.80
2023-05-23T02:13:01.052Z,16.10
2023-05-23T02:14:01.067Z,14.00
2023-05-23T02:15:01.047Z,16.50
2023-05-23T02:16:01.022Z,18.40
2023-05-23T02:17:01.197Z,15.60
2023-05-23T02:18:01.129Z,19.50
2023-05-23T02:19:01.019Z,16.20
2023-05-23T02:20:00.978Z,16.20
2023-05-23T02:21:01.016Z,16.50
2023-05-23T02:22:00.981Z,17.10
2023-05-23T02:23:00.968Z,18.10
2023-05-23T02:24:00.986Z,16.70
2023-05-23T02:25:00.942Z,22.60
2023-05-23T02:26:01.029Z,14.90
2023-05-23T02:27:00.939Z,14.90
2023-05-23T02:28:00.901Z,16.60
2023-05-23T02:29:01.163Z,17.60
2023-05-23T02:30:00.953Z,17.10
2023-05-23T02:31:00.983Z,14.80
2023-05-23T02:32:00.864Z,14.90
2023-05-23T02:33:01.037Z,18.80
2023-05-23T02:34:00.850Z,19.80
2023-05-23T02:35:00.845Z,17.90
2023-05-23T02:36:00.807Z,16.50
2023-05-23T02:37:00.789Z,14.30
2023-05-23T02:38:00.900Z,14.70
2023-05-23T02:39:00.754Z,15.40
2023-05-23T02:40:00.794Z,16.20
2023-05-23T02:41:00.889Z,18.50
2023-05-23T02:42:00.733Z,14.50
2023-05-23T02:43:00.779Z,14.30
2023-05-23T02:44:00.751Z,15.80
2023-05-23T02:45:00.728Z,14.20
2023-05-23T02:46:00.734Z,14.00
2023-05-23T02:47:00.741Z,15.40
2023-05-23T02:48:00.863Z,19.40
2023-05-23T02:49:00.690Z,14.80
2023-05-23T02:50:00.604Z,19.10
2023-05-23T02:51:01.164Z,14.50
2023-05-23T02:52:00.653Z,14.00
2023-05-23T02:53:00.588Z,16.60
2023-05-23T02:54:00.717Z,10.80
2023-05-23T02:55:00.600Z,17.90
2023-05-23T02:56:00.527Z,12.10
2023-05-23T02:57:00.560Z,12.50
2023-05-23T02:58:00.521Z,12.20
2023-05-23T02:59:00.530Z,12.00
2023-05-23T03:00:00.628Z,15.30
2023-05-23T03:01:00.484Z,10.50
2023-05-23T03:02:00.586Z,13.20
2023-05-23T03:03:00.497Z,14.20
2023-05-23T03:04:00.701Z,12.10
2023-05-23T03:05:00.625Z,10.80
2023-05-23T03:06:00.597Z,10.00
2023-05-23T03:07:00.562Z,8.90
2023-05-23T03:08:00.669Z,8.50
2023-05-23T03:09:00.516Z,8.40
2023-05-23T03:10:00.499Z,10.50
2023-05-23T03:11:00.502Z,8.90
2023-05-23T03:12:00.497Z,9.10
2023-05-23T03:13:00.487Z,8.90
2023-05-23T03:14:00.547Z,11.30
2023-05-23T03:15:00.512Z,10.40
2023-05-23T03:16:00.560Z,8.40
2023-05-23T03:17:00.472Z,8.50
2023-05-23T03:18:00.470Z,7.50
2023-05-23T03:19:00.479Z,9.00
2023-05-23T03:20:00.373Z,9.40
2023-05-23T03:21:00.376Z,11.20
2023-05-23T03:22:00.429Z,9.40
2023-05-23T03:23:00.373Z,9.10
2023-05-23T03:24:00.462Z,7.80
2023-05-23T03:25:00.362Z,9.50
2023-05-23T03:26:00.386Z,10.10
2023-05-23T03:27:00.324Z,8.40
2023-05-23T03:28:00.346Z,8.50
2023-05-23T03:29:00.345Z,11.00
2023-05-23T03:30:00.307Z,8.30
2023-05-23T03:31:00.400Z,9.90
2023-05-23T03:32:00.391Z,8.90
2023-05-23T03:33:00.317Z,6.60
2023-05-23T03:34:00.330Z,9.80
2023-05-23T03:35:00.256Z,9.70
2023-05-23T03:36:00.278Z,8.80
2023-05-23T03:37:00.264Z,10.80
2023-05-23T03:38:00.209Z,8.90
2023-05-23T03:39:00.211Z,10.20
2023-05-23T03:40:00.256Z,10.20
2023-05-23T03:41:00.182Z,8.60
2023-05-23T03:42:00.189Z,14.40
2023-05-23T03:43:00.164Z,8.50
2023-05-23T03:44:00.185Z,7.80
2023-05-23T03:45:00.163Z,8.30
2023-05-23T03:46:00.199Z,8.80
2023-05-23T03:47:00.221Z,8.10
2023-05-23T03:48:00.223Z,7.70
2023-05-23T03:49:00.141Z,7.30
2023-05-23T03:50:00.101Z,6.70
2023-05-23T03:51:00.064Z,7.50
2023-05-23T03:52:00.184Z,6.80
2023-05-23T03:53:00.070Z,7.90
2023-05-23T03:54:00.063Z,7.10
2023-05-23T03:55:00.106Z,7.20
2023-05-23T03:56:00.062Z,7.00
2023-05-23T03:56:59.985Z,7.90
2023-05-23T03:58:00.117Z,6.50
2023-05-23T03:59:00.042Z,6.80
2023-05-23T03:59:59.966Z,6.40
2023-05-23T04:01:01.874Z,5.70
2023-05-23T04:01:59.965Z,6.70
2023-05-23T04:03:00.154Z,6.70
2023-05-23T04:04:00.067Z,7.90
2023-05-23T04:04:59.906Z,5.80
2023-05-23T04:05:59.922Z,7.20
2023-05-23T04:06:59.959Z,7.60
2023-05-23T04:07:59.930Z,9.90
2023-05-23T04:08:59.883Z,6.70
2023-05-23T04:09:59.861Z,11.80
2023-05-23T04:10:59.992Z,8.90
2023-05-23T04:11:59.919Z,9.30
2023-05-23T04:12:59.927Z,9.20
2023-05-23T04:13:59.805Z,8.20
2023-05-23T04:14:59.897Z,8.50
2023-05-23T04:15:59.898Z,9.40
2023-05-23T04:16:59.913Z,7.00
2023-05-23T04:17:59.916Z,8.50
2023-05-23T04:18:59.844Z,7.70
2023-05-23T04:19:59.811Z,10.90
2023-05-23T04:20:59.860Z,8.80
2023-05-23T04:21:59.632Z,7.70
2023-05-23T04:22:59.992Z,9.10
2023-05-23T04:23:59.674Z,9.30
2023-05-23T04:24:59.649Z,8.70
2023-05-23T04:25:59.572Z,11.00
2023-05-23T04:26:59.561Z,8.00
2023-05-23T04:27:59.668Z,9.10
2023-05-23T04:28:59.565Z,11.40
2023-05-23T04:29:59.557Z,12.00
2023-05-23T04:30:59.598Z,11.10
2023-05-23T04:31:59.546Z,9.30
2023-05-23T04:32:59.594Z,12.70
2023-05-23T04:33:59.512Z,9.90
2023-05-23T04:34:59.476Z,11.10
2023-05-23T04:35:59.498Z,13.20
2023-05-23T04:36:59.441Z,10.40
2023-05-23T04:37:59.444Z,12.20
2023-05-23T04:38:59.512Z,8.30
2023-05-23T04:39:59.429Z,9.10
2023-05-23T04:40:59.437Z,9.90
2023-05-23T04:41:59.414Z,11.10
2023-05-23T04:42:59.412Z,10.70
2023-05-23T04:43:59.412Z,10.80
2023-05-23T04:44:59.366Z,9.50
2023-05-23T04:45:59.411Z,11.70
2023-05-23T04:46:59.422Z,10.70
2023-05-23T04:47:59.414Z,11.10
2023-05-23T04:48:59.354Z,10.90
2023-05-23T04:49:59.324Z,9.80
2023-05-23T04:50:59.377Z,11.50
2023-05-23T04:51:59.324Z,11.90
2023-05-23T04:52:59.280Z,11.90
2023-05-23T04:53:59.265Z,11.60
2023-05-23T04:54:59.242Z,11.80
2023-05-23T04:55:59.277Z,11.00
2023-05-23T04:56:59.324Z,10.40
2023-05-23T04:57:59.249Z,11.60
2023-05-23T04:58:59.219Z,11.20
2023-05-23T04:59:59.407Z,11.90
2023-05-23T05:00:59.377Z,11.90
2023-05-23T05:01:59.231Z,15.20
2023-05-23T05:02:59.237Z,12.60
2023-05-23T05:03:59.197Z,14.20
2023-05-23T05:04:59.371Z,16.60
2023-05-23T05:05:59.185Z,13.20
2023-05-23T05:06:59.199Z,11.90
2023-05-23T05:07:59.158Z,10.80
2023-05-23T05:08:59.093Z,12.10
2023-05-23T05:10:01.048Z,10.90
2023-05-23T05:10:59.087Z,10.80
2023-05-23T05:11:59.119Z,13.80
2023-05-23T05:12:59.092Z,13.00
2023-05-23T05:13:59.063Z,11.40
2023-05-23T05:14:59.027Z,10.20
2023-05-23T05:15:59.056Z,11.10
2023-05-23T05:16:59.031Z,11.30
2023-05-23T05:17:59.075Z,15.40
2023-05-23T05:18:59.079Z,12.70
2023-05-23T05:19:58.986Z,13.10
2023-05-23T05:20:59.114Z,10.70
2023-05-23T05:21:58.996Z,10.30
2023-05-23T05:22:58.993Z,11.10
2023-05-23T05:23:58.933Z,11.70
2023-05-23T05:24:58.950Z,10.90
2023-05-23T05:25:58.949Z,11.90
2023-05-23T05:26:58.909Z,10.40
2023-05-23T05:27:58.938Z,12.20
2023-05-23T05:28:58.889Z,11.40
2023-05-23T05:29:58.875Z,12.30
2023-05-23T05:30:58.914Z,8.50
2023-05-23T05:31:58.866Z,8.90
2023-05-23T05:32:58.872Z,10.00
2023-05-23T05:33:58.840Z,10.80
2023-05-23T05:34:58.844Z,9.90
2023-05-23T05:35:58.829Z,10.40
2023-05-23T05:36:58.820Z,11.70
2023-05-23T05:37:58.786Z,9.30
2023-05-23T05:38:58.810Z,10.70
2023-05-23T05:39:58.785Z,13.90
2023-05-23T05:40:58.797Z,9.60
2023-05-23T05:41:58.776Z,10.40
2023-05-23T05:42:58.779Z,8.70
2023-05-23T05:43:58.729Z,8.00
2023-05-23T05:44:58.778Z,8.90
2023-05-23T05:45:58.779Z,10.90
2023-05-23T05:46:58.700Z,8.30
2023-05-23T05:47:58.758Z,9.80
2023-05-23T05:48:58.690Z,8.90
2023-05-23T05:49:58.686Z,7.40
2023-05-23T05:50:58.735Z,8.80
2023-05-23T05:51:58.651Z,7.50
2023-05-23T05:52:58.636Z,8.00
2023-05-23T05:53:58.624Z,6.50
2023-05-23T05:54:58.672Z,7.50
2023-05-23T05:55:58.605Z,7.10
2023-05-23T05:56:58.590Z,7.40
2023-05-23T05:57:58.618Z,5.80
2023-05-23T05:58:58.601Z,7.50
2023-05-23T05:59:58.582Z,6.30
2023-05-23T06:00:58.563Z,6.40
2023-05-23T06:01:58.538Z,7.20
2023-05-23T06:02:58.611Z,7.40
2023-05-23T06:03:58.775Z,7.50
2023-05-23T06:04:58.599Z,8.30
2023-05-23T06:05:58.543Z,6.70
2023-05-23T06:06:58.523Z,8.30
2023-05-23T06:07:58.543Z,7.60
2023-05-23T06:08:58.475Z,7.10
2023-05-23T06:09:58.473Z,9.00
2023-05-23T06:10:58.471Z,7.40
2023-05-23T06:11:58.488Z,7.10
2023-05-23T06:12:58.465Z,6.60
2023-05-23T06:13:58.436Z,7.90
2023-05-23T06:14:58.477Z,7.10
2023-05-23T06:15:58.534Z,6.10
2023-05-23T06:16:58.382Z,6.30
2023-05-23T06:17:58.454Z,7.50
2023-05-23T06:18:58.437Z,6.30
2023-05-23T06:19:58.360Z,6.60
2023-05-23T06:20:58.360Z,7.90
2023-05-23T06:21:58.333Z,7.70
2023-05-23T06:22:58.322Z,7.70
2023-05-23T06:23:58.319Z,6.60
2023-05-23T06:24:58.317Z,9.10
2023-05-23T06:25:58.288Z,7.50
2023-05-23T06:26:58.265Z,7.50
2023-05-23T06:27:58.319Z,6.50
2023-05-23T06:28:58.332Z,9.40
2023-05-23T06:29:58.251Z,7.80
2023-05-23T06:30:58.255Z,6.50
2023-05-23T06:31:58.294Z,5.60
2023-05-23T06:32:58.323Z,6.60
2023-05-23T06:33:58.215Z,6.10
2023-05-23T06:34:58.230Z,7.20
2023-05-23T06:35:58.179Z,8.10
2023-05-23T06:36:58.161Z,7.10
2023-05-23T06:37:58.195Z,6.60
2023-05-23T06:38:58.154Z,7.10
2023-05-23T06:39:58.155Z,6.30
2023-05-23T06:40:58.148Z,6.20
2023-05-23T06:41:58.167Z,4.90
2023-05-23T06:42:58.148Z,6.50
2023-05-23T06:43:58.099Z,5.90
2023-05-23T06:44:58.084Z,6.20
2023-05-23T06:45:58.126Z,8.80
2023-05-23T06:46:58.072Z,7.60
2023-05-23T06:47:58.064Z,8.00
2023-05-23T06:49:06.953Z,9.10
2023-05-23T06:49:58.074Z,6.10
2023-05-23T06:50:58.066Z,8.50
2023-05-23T06:51:58.047Z,6.60
2023-05-23T06:52:58.027Z,7.40
2023-05-23T06:53:58.004Z,5.60
2023-05-23T06:54:58.007Z,6.60
2023-05-23T06:55:57.964Z,6.30
2023-05-23T06:56:57.995Z,5.50
2023-05-23T06:57:57.973Z,5.40
2023-05-23T06:58:57.956Z,6.80
2023-05-23T06:59:57.925Z,7.30
2023-05-23T07:00:57.952Z,7.20
2023-05-23T07:01:57.932Z,6.10
2023-05-23T07:02:57.904Z,5.60
2023-05-23T07:03:57.891Z,6.40
2023-05-23T07:04:57.939Z,4.80
2023-05-23T07:05:57.892Z,6.60
2023-05-23T07:06:57.874Z,5.20
2023-05-23T07:07:57.831Z,6.00
2023-05-23T07:08:57.862Z,4.90
2023-05-23T07:09:57.812Z,4.90
2023-05-23T07:10:57.838Z,6.10
2023-05-23T07:11:57.837Z,5.90
2023-05-23T07:12:57.793Z,5.50
2023-05-23T07:13:57.796Z,4.60
2023-05-23T07:14:57.771Z,4.60
2023-05-23T07:15:57.897Z,4.20
2023-05-23T07:16:57.765Z,5.30
2023-05-23T07:17:57.759Z,4.40
2023-05-23T07:18:57.755Z,3.80
2023-05-23T07:19:57.740Z,3.40
2023-05-23T07:20:57.745Z,4.40
2023-05-23T07:21:57.705Z,3.80
2023-05-23T07:22:57.763Z,5.10
2023-05-23T07:23:57.669Z,3.10
2023-05-23T07:24:57.692Z,3.70
2023-05-23T07:26:02.423Z,4.70
2023-05-23T07:26:57.638Z,3.30
2023-05-23T07:27:57.662Z,2.80
2023-05-23T07:28:57.689Z,2.90
2023-05-23T07:29:57.629Z,4.40
2023-05-23T07:30:57.747Z,3.00
2023-05-23T07:31:57.590Z,3.70
2023-05-23T07:32:57.618Z,2.50
2023-05-23T07:33:59.418Z,2.70
2023-05-23T07:34:57.575Z,4.10
2023-05-23T07:35:57.556Z,2.70
2023-05-23T07:36:57.555Z,2.50
2023-05-23T07:37:57.526Z,4.20
2023-05-23T07:38:57.527Z,2.60
2023-05-23T07:39:57.642Z,2.20
2023-05-23T07:41:09.963Z,3.10
2023-05-23T07:41:57.484Z,3.50
2023-05-23T07:42:57.482Z,5.80
2023-05-23T07:43:57.491Z,3.60
2023-05-23T07:44:57.455Z,2.50
2023-05-23T07:45:57.458Z,2.40
2023-05-23T07:46:57.575Z,2.80
2023-05-23T07:47:57.558Z,3.70
2023-05-23T07:48:57.422Z,3.80
2023-05-23T07:49:57.366Z,3.00
2023-05-23T07:50:57.374Z,3.30
2023-05-23T07:51:57.400Z,4.60
2023-05-23T07:52:57.363Z,2.70
2023-05-23T07:53:57.401Z,3.00
2023-05-23T07:54:57.379Z,3.70
2023-05-23T07:55:57.332Z,3.60
2023-05-23T07:56:57.335Z,3.80
2023-05-23T07:57:57.334Z,3.50
2023-05-23T07:58:57.346Z,2.90
2023-05-23T07:59:57.386Z,3.00
2023-05-23T08:00:57.284Z,3.80
2023-05-23T08:01:57.324Z,2.40
2023-05-23T08:02:57.345Z,3.20
2023-05-23T08:03:57.269Z,3.20
2023-05-23T08:04:57.259Z,3.00
2023-05-23T08:05:57.243Z,4.00
2023-05-23T08:07:57.185Z,3.20
2023-05-23T08:08:57.191Z,3.20
2023-05-23T08:09:57.181Z,2.00
2023-05-23T08:10:57.168Z,3.30
2023-05-23T08:11:57.152Z,2.70
2023-05-23T08:12:57.166Z,3.00
2023-05-23T08:13:58.447Z,3.60
2023-05-23T08:14:57.144Z,2.80
2023-05-23T08:15:57.154Z,2.80
2023-05-23T08:16:57.368Z,3.30
2023-05-23T08:17:57.450Z,3.10
2023-05-23T08:18:57.163Z,2.90
2023-05-23T08:19:57.123Z,2.80
2023-05-23T08:20:57.180Z,3.50
2023-05-23T08:21:57.060Z,3.90
2023-05-23T08:22:57.069Z,3.30
2023-05-23T08:23:57.065Z,3.10
2023-05-23T08:24:57.032Z,2.00
2023-05-23T08:25:57.015Z,3.60
2023-05-23T08:26:57.046Z,2.70
2023-05-23T08:27:57.062Z,2.60
2023-05-23T08:28:56.980Z,2.20
2023-05-23T08:29:57.062Z,5.40
2023-05-23T08:30:56.957Z,2.90
2023-05-23T08:31:57.041Z,2.90
2023-05-23T08:32:57.052Z,2.80
2023-05-23T08:33:56.928Z,2.30
2023-05-23T08:34:56.934Z,2.90
2023-05-23T08:35:56.897Z,2.50
2023-05-23T08:36:56.877Z,1.70
2023-05-23T08:37:56.884Z,2.50
2023-05-23T08:38:56.876Z,2.80
2023-05-23T08:39:56.885Z,2.40
2023-05-23T08:40:56.883Z,2.20
2023-05-23T08:41:56.907Z,2.20
2023-05-23T08:42:56.849Z,6.10
2023-05-23T08:43:56.862Z,2.50
2023-05-23T08:44:56.870Z,2.00
2023-05-23T08:45:56.968Z,1.60
2023-05-23T08:46:56.837Z,2.30
2023-05-23T08:47:56.832Z,3.90
2023-05-23T08:48:56.824Z,2.50
2023-05-23T08:49:56.787Z,2.60
2023-05-23T08:50:56.754Z,2.10
2023-05-23T08:51:56.759Z,1.80
2023-05-23T08:52:56.804Z,2.80
2023-05-23T08:53:57.489Z,1.80
2023-05-23T08:54:56.753Z,2.20
2023-05-23T08:55:56.681Z,1.70
2023-05-23T08:56:56.718Z,1.80
2023-05-23T08:57:56.707Z,2.70
2023-05-23T08:58:56.737Z,4.30
2023-05-23T08:59:56.665Z,2.30
2023-05-23T09:00:56.666Z,3.50
2023-05-23T09:01:56.780Z,1.70
2023-05-23T09:02:56.667Z,2.40
2023-05-23T09:03:56.635Z,1.60
2023-05-23T09:04:56.642Z,2.90
2023-05-23T09:05:56.727Z,4.20
2023-05-23T09:06:56.596Z,2.00
2023-05-23T09:07:56.567Z,2.10
2023-05-23T09:08:56.546Z,2.10
2023-05-23T09:09:56.600Z,1.80
2023-05-23T09:10:56.554Z,2.70
2023-05-23T09:11:56.548Z,2.30
2023-05-23T09:12:56.527Z,1.90
2023-05-23T09:13:56.499Z,2.10
2023-05-23T09:14:56.501Z,2.30
2023-05-23T09:15:56.526Z,2.00
2023-05-23T09:16:56.505Z,1.70
2023-05-23T09:17:56.515Z,2.70
2023-05-23T09:18:56.535Z,3.80
2023-05-23T09:19:56.465Z,3.50
2023-05-23T09:20:56.436Z,2.10
2023-05-23T09:21:56.445Z,2.90
2023-05-23T09:22:56.435Z,3.30
2023-05-23T09:23:56.432Z,2.30
2023-05-23T09:24:56.411Z,3.10
2023-05-23T09:25:56.399Z,2.00
2023-05-23T09:26:56.355Z,2.90
2023-05-23T09:27:56.352Z,2.50
2023-05-23T09:28:56.408Z,2.50
2023-05-23T09:29:56.355Z,3.90
2023-05-23T09:30:56.374Z,2.30
2023-05-23T09:31:56.375Z,2.20
2023-05-23T09:32:56.391Z,2.10
2023-05-23T09:33:56.303Z,2.90
2023-05-23T09:34:56.371Z,3.00
2023-05-23T09:35:56.333Z,2.00
2023-05-23T09:36:56.255Z,1.80
2023-05-23T09:37:56.256Z,3.00
2023-05-23T09:38:56.237Z,2.20
2023-05-23T09:39:56.259Z,2.90
2023-05-23T09:40:56.249Z,6.40
2023-05-23T09:41:56.240Z,1.80
2023-05-23T09:42:56.208Z,2.00
2023-05-23T09:43:56.215Z,2.50
2023-05-23T09:44:56.188Z,3.00
2023-05-23T09:45:56.163Z,3.70
2023-05-23T09:46:56.217Z,2.90
2023-05-23T09:47:56.166Z,4.30
2023-05-23T09:48:56.160Z,2.30
2023-05-23T09:49:56.160Z,3.20
2023-05-23T09:50:56.156Z,4.00
2023-05-23T09:51:56.117Z,2.20
2023-05-23T09:52:56.098Z,2.90
2023-05-23T09:53:56.088Z,2.40
2023-05-23T09:54:56.081Z,7.70
2023-05-23T09:55:56.059Z,2.60
2023-05-23T09:56:56.185Z,2.30
2023-05-23T09:57:56.221Z,1.80
2023-05-23T09:58:56.132Z,2.10
2023-05-23T09:59:56.032Z,3.20
2023-05-23T10:00:56.085Z,2.40
2023-05-23T10:01:56.012Z,1.90
2023-05-23T10:02:56.181Z,2.40
2023-05-23T10:03:58.779Z,1.70
2023-05-23T10:04:56.013Z,2.70
2023-05-23T10:05:55.953Z,2.80
2023-05-23T10:06:55.943Z,2.10
2023-05-23T10:07:55.944Z,2.90
2023-05-23T10:08:55.975Z,3.10
2023-05-23T10:09:58.218Z,3.40
2023-05-23T10:10:56.020Z,3.70
2023-05-23T10:11:55.898Z,2.30
2023-05-23T10:12:55.898Z,2.50
2023-05-23T10:13:55.884Z,2.60
2023-05-23T10:14:55.930Z,2.60
2023-05-23T10:15:56.635Z,2.40
2023-05-23T10:16:55.910Z,2.30
2023-05-23T10:17:55.932Z,1.90
2023-05-23T10:18:55.869Z,2.30
2023-05-23T10:19:55.820Z,3.10
2023-05-23T10:20:55.833Z,4.50
2023-05-23T10:21:55.836Z,3.20
2023-05-23T10:22:55.801Z,3.60
2023-05-23T10:23:55.793Z,2.60
2023-05-23T10:24:55.804Z,3.40
2023-05-23T10:25:55.877Z,4.10
2023-05-23T10:26:55.768Z,2.50
2023-05-23T10:27:55.833Z,2.50
2023-05-23T10:28:55.821Z,3.60
2023-05-23T10:29:55.743Z,2.20
2023-05-23T10:30:55.732Z,3.00
2023-05-23T10:31:55.705Z,2.90
2023-05-23T10:32:55.748Z,2.40
2023-05-23T10:33:55.877Z,3.10
2023-05-23T10:34:55.679Z,2.80
2023-05-23T10:35:55.708Z,2.10
2023-05-23T10:36:55.636Z,2.50
2023-05-23T10:37:55.717Z,3.00
2023-05-23T10:38:55.628Z,3.40
2023-05-23T10:39:55.638Z,4.00
2023-05-23T10:40:55.615Z,2.40
2023-05-23T10:41:55.628Z,3.30
2023-05-23T10:42:55.749Z,2.80
2023-05-23T10:43:55.637Z,2.60
2023-05-23T10:44:55.550Z,2.80
2023-05-23T10:45:55.681Z,2.60
2023-05-23T10:46:55.601Z,2.60
2023-05-23T10:47:55.533Z,2.40
2023-05-23T10:48:55.556Z,2.50
2023-05-23T10:49:55.510Z,2.50
2023-05-23T10:50:55.500Z,2.90
2023-05-23T10:51:55.610Z,2.80
2023-05-23T10:52:55.675Z,2.70
2023-05-23T10:53:55.477Z,3.80
2023-05-23T10:54:55.476Z,3.00
2023-05-23T10:55:55.438Z,2.90
2023-05-23T10:56:55.538Z,3.10
2023-05-23T10:57:55.416Z,3.50
2023-05-23T10:58:55.437Z,3.00
2023-05-23T10:59:55.495Z,2.70
2023-05-23T11:00:55.421Z,2.70
2023-05-23T11:01:55.428Z,2.40
2023-05-23T11:02:55.587Z,4.40
2023-05-23T11:03:56.197Z,2.80
2023-05-23T11:04:55.514Z,3.20
2023-05-23T11:05:55.364Z,2.60
2023-05-23T11:06:55.380Z,2.40
2023-05-23T11:07:55.308Z,3.70
2023-05-23T11:08:55.502Z,4.60
2023-05-23T11:09:55.306Z,3.60
2023-05-23T11:10:55.293Z,3.50
2023-05-23T11:11:55.395Z,3.10
2023-05-23T11:12:55.291Z,3.10
2023-05-23T11:13:55.297Z,5.40
2023-05-23T11:14:56.012Z,2.10
2023-05-23T11:15:55.452Z,4.30
2023-05-23T11:16:55.297Z,3.00
2023-05-23T11:17:55.269Z,3.50
2023-05-23T11:18:55.229Z,5.60
2023-05-23T11:19:55.287Z,2.50
2023-05-23T11:20:55.354Z,2.40
2023-05-23T11:21:55.209Z,3.50
2023-05-23T11:22:55.207Z,2.10
2023-05-23T11:23:55.245Z,3.90
2023-05-23T11:24:55.159Z,2.20
2023-05-23T11:25:55.130Z,2.20
2023-05-23T11:26:55.185Z,2.50
2023-05-23T11:27:55.145Z,3.10
2023-05-23T11:28:55.101Z,4.60
2023-05-23T11:29:55.110Z,3.40
2023-05-23T11:30:55.091Z,2.40
2023-05-23T11:31:55.078Z,5.70
2023-05-23T11:32:55.105Z,5.20
2023-05-23T11:33:55.068Z,2.40
2023-05-23T11:34:55.027Z,2.30
2023-05-23T11:35:55.082Z,4.50
2023-05-23T11:36:55.041Z,3.00
2023-05-23T11:37:55.130Z,4.70
2023-05-23T11:38:54.984Z,2.60
2023-05-23T11:39:55.041Z,3.60
2023-05-23T11:40:54.975Z,3.00
2023-05-23T11:41:55.035Z,2.20
2023-05-23T11:42:55.020Z,2.10
2023-05-23T11:43:54.999Z,2.90
2023-05-23T11:44:55.010Z,2.80
2023-05-23T11:45:55.023Z,2.60
2023-05-23T11:46:54.885Z,3.40
2023-05-23T11:47:55.034Z,1.80
2023-05-23T11:48:55.175Z,2.30
2023-05-23T11:49:54.887Z,2.70
2023-05-23T11:50:54.994Z,3.00
2023-05-23T11:51:54.868Z,3.10
2023-05-23T11:52:54.904Z,2.50
2023-05-23T11:53:54.862Z,1.70
2023-05-23T11:54:56.736Z,2.10
2023-05-23T11:55:54.847Z,1.30
2023-05-23T11:56:54.861Z,4.90
2023-05-23T11:57:54.827Z,1.70
2023-05-23T11:58:54.875Z,3.70
2023-05-23T11:59:54.766Z,1.70
2023-05-23T12:00:55.446Z,3.10
2023-05-23T12:01:54.771Z,2.30
2023-05-23T12:02:54.816Z,2.40
2023-05-23T12:03:54.825Z,1.70
2023-05-23T12:04:54.861Z,1.50
2023-05-23T12:05:54.792Z,1.30
2023-05-23T12:06:54.678Z,2.40
2023-05-23T12:07:54.686Z,2.40
2023-05-23T12:08:54.683Z,2.10
2023-05-23T12:09:54.905Z,1.60
2023-05-23T12:10:54.635Z,2.10
2023-05-23T12:11:54.933Z,1.30
2023-05-23T12:12:54.703Z,1.90
2023-05-23T12:13:54.618Z,1.60
2023-05-23T12:14:54.603Z,1.80
2023-05-23T12:15:54.595Z,1.90
2023-05-23T12:16:54.803Z,1.30
2023-05-23T12:17:54.603Z,1.40
2023-05-23T12:18:54.635Z,1.30
2023-05-23T12:19:54.598Z,4.40
2023-05-23T12:20:54.588Z,2.20
2023-05-23T12:21:54.519Z,1.90
2023-05-23T12:22:54.553Z,1.40
2023-05-23T12:23:54.514Z,1.60
2023-05-23T12:24:54.573Z,0.90
2023-05-23T12:25:54.492Z,2.90
2023-05-23T12:26:54.501Z,1.00
2023-05-23T12:27:54.488Z,1.20
2023-05-23T12:28:54.457Z,0.90
2023-05-23T12:29:54.447Z,0.70
2023-05-23T12:30:54.514Z,3.40
2023-05-23T12:31:54.463Z,0.90
2023-05-23T12:32:54.551Z,1.60
2023-05-23T12:33:54.396Z,0.80
2023-05-23T12:34:54.426Z,2.20
2023-05-23T12:35:54.482Z,0.80
2023-05-23T12:37:02.858Z,0.80
2023-05-23T12:37:54.431Z,1.10
2023-05-23T12:38:54.344Z,1.10
2023-05-23T12:39:54.493Z,1.30
2023-05-23T12:40:54.339Z,1.00
2023-05-23T12:41:54.322Z,0.90
2023-05-23T12:42:54.346Z,1.50
2023-05-23T12:43:54.389Z,1.40
2023-05-23T12:44:54.304Z,1.30
2023-05-23T12:45:54.336Z,1.50
2023-05-23T12:46:54.297Z,1.40
2023-05-23T12:47:54.595Z,1.90
2023-05-23T12:48:54.355Z,1.30
2023-05-23T12:49:54.359Z,1.10
2023-05-23T12:50:54.280Z,2.90
2023-05-23T12:51:54.221Z,1.10
2023-05-23T12:52:54.196Z,1.10
2023-05-23T12:53:54.196Z,3.70
2023-05-23T12:54:54.186Z,1.40
2023-05-23T12:55:54.210Z,2.30
2023-05-23T12:56:54.210Z,1.10
2023-05-23T12:57:54.273Z,1.00
2023-05-23T12:58:54.171Z,4.20
2023-05-23T12:59:54.131Z,1.80
2023-05-23T13:00:54.184Z,1.10
2023-05-23T13:01:54.147Z,1.40
2023-05-23T13:02:54.178Z,1.30
2023-05-23T13:03:54.187Z,1.10
2023-05-23T13:04:54.211Z,3.10
2023-05-23T13:05:54.138Z,1.50
2023-05-23T13:06:54.286Z,1.30
2023-05-23T13:07:54.135Z,1.40
2023-05-23T13:08:54.191Z,4.10
2023-05-23T13:09:54.114Z,4.70